Time;durP1;ratioP1;P1;durP2;ratioP2;P2;SDS_P1;SDS_P2;PMS_P1;PMS_P2;Temp;Humidity;BMP_temperature;BMP_pressure;BME280_temperature;BME280_humidity;BME280_pressure;Samples;Min_cycle;Max_cycle;Signal;HPM_P1;HPM_P2
2022/07/27 00:01:07;;;;;;;21.40;13.82;;;;;;;19.58;77.21;94572.94;5035480;28;20106;-70
2022/07/27 00:03:34;;;;;;;18.77;13.55;;;;;;;19.56;77.91;94567.94;5026343;28;20601;-70
2022/07/27 00:06:01;;;;;;;18.50;13.70;;;;;;;19.55;78.07;94574.31;5044736;28;20061;-69
2022/07/27 00:08:28;;;;;;;18.13;14.50;;;;;;;19.60;78.55;94568.91;5046667;28;20580;-70
2022/07/27 00:10:56;;;;;;;20.92;13.32;;;;;;;19.64;78.01;94575.19;5022549;28;20561;-70
2022/07/27 00:13:23;;;;;;;22.35;14.32;;;;;;;19.71;77.44;94574.78;5019979;28;20431;-70
2022/07/27 00:15:50;;;;;;;22.98;13.82;;;;;;;19.75;77.41;94582.94;5044858;28;20052;-69
2022/07/27 00:18:17;;;;;;;18.70;13.20;;;;;;;19.65;77.60;94571.47;5031911;28;20040;-69
2022/07/27 00:20:44;;;;;;;19.80;14.25;;;;;;;19.70;77.24;94567.16;5043827;28;20039;-70
2022/07/27 00:23:11;;;;;;;15.80;12.80;;;;;;;19.68;77.38;94575.41;5034323;28;20045;-70
2022/07/27 00:25:37;;;;;;;18.15;13.57;;;;;;;19.68;77.20;94578.81;5023958;28;20052;-70
2022/07/27 00:28:05;;;;;;;23.25;13.10;;;;;;;19.60;77.45;94590.06;5047282;28;20043;-69
2022/07/27 00:30:32;;;;;;;22.33;13.63;;;;;;;19.51;78.03;94586.53;5043523;28;20511;-70
2022/07/27 00:32:59;;;;;;;17.45;13.90;;;;;;;19.46;77.90;94583.97;5041757;28;20045;-70
2022/07/27 00:35:26;;;;;;;21.13;13.95;;;;;;;19.45;78.23;94593.00;5043949;28;20045;-69
2022/07/27 00:37:53;;;;;;;20.92;13.98;;;;;;;19.37;78.52;94593.66;5041475;28;20040;-70
2022/07/27 00:40:20;;;;;;;18.73;12.68;;;;;;;19.38;78.49;94589.97;5031470;28;20410;-69
2022/07/27 00:42:46;;;;;;;16.42;13.85;;;;;;;19.40;78.77;94598.38;5032690;28;20041;-69
2022/07/27 00:45:13;;;;;;;20.52;13.75;;;;;;;19.41;78.93;94597.28;5049193;28;20053;-70
2022/07/27 00:47:40;;;;;;;17.38;14.48;;;;;;;19.35;79.39;94603.72;5042317;28;20052;-70
2022/07/27 00:50:08;;;;;;;18.15;13.60;;;;;;;19.22;79.79;94606.06;5046211;28;20525;-71
2022/07/27 00:52:37;;;;;;;18.85;14.73;;;;;;;19.13;80.14;94602.53;5043930;28;20054;-69
2022/07/27 00:55:04;;;;;;;21.90;14.10;;;;;;;19.07;80.92;94603.69;5041104;28;20094;-69
2022/07/27 00:57:32;;;;;;;19.42;14.90;;;;;;;18.98;80.81;94608.84;5042128;28;20041;-71
2022/07/27 01:00:20;;;;;;;17.20;13.48;;;;;;;18.96;81.06;94618.09;5026360;28;20052;-71
2022/07/27 01:02:50;;;;;;;21.55;15.15;;;;;;;18.94;81.64;94626.31;5030152;28;20056;-70
2022/07/27 01:05:17;;;;;;;18.15;13.25;;;;;;;18.90;81.68;94615.53;5045711;28;20075;-70
2022/07/27 01:07:44;;;;;;;18.33;14.38;;;;;;;18.83;82.76;94620.41;5030994;28;20083;-70
2022/07/27 01:10:11;;;;;;;19.80;14.43;;;;;;;18.78;82.76;94623.13;5044541;28;20048;-71
2022/07/27 01:12:38;;;;;;;21.23;14.98;;;;;;;18.71;82.57;94620.06;5044008;28;20394;-70
2022/07/27 01:15:05;;;;;;;20.88;12.93;;;;;;;18.65;82.62;94618.56;5021234;28;20045;-70
2022/07/27 01:17:32;;;;;;;18.65;14.38;;;;;;;18.51;83.31;94603.47;5040923;28;20049;-71
2022/07/27 01:19:59;;;;;;;20.08;13.90;;;;;;;18.63;83.53;94625.97;5043462;28;20239;-70
2022/07/27 01:22:26;;;;;;;19.90;14.38;;;;;;;18.57;83.80;94621.84;5040835;28;20527;-68
2022/07/27 01:24:53;;;;;;;21.17;15.40;;;;;;;18.48;83.39;94617.22;5035599;28;20041;-70
2022/07/27 01:27:20;;;;;;;22.55;14.20;;;;;;;18.43;83.84;94617.28;5040732;28;20044;-70
2022/07/27 01:29:47;;;;;;;24.60;15.05;;;;;;;18.38;84.41;94619.19;5043692;28;20139;-70
2022/07/27 01:32:14;;;;;;;20.90;13.60;;;;;;;18.38;84.74;94619.97;5048283;28;20946;-70
2022/07/27 01:34:41;;;;;;;24.05;15.10;;;;;;;18.32;85.41;94615.84;5043733;28;20041;-71
2022/07/27 01:37:08;;;;;;;21.92;15.00;;;;;;;18.41;85.92;94629.19;5043851;28;20036;-70
2022/07/27 01:39:35;;;;;;;19.35;13.43;;;;;;;18.37;86.44;94628.97;5026251;28;20064;-71
2022/07/27 01:42:02;;;;;;;22.95;15.10;;;;;;;18.37;86.01;94617.66;5044766;28;20158;-72
2022/07/27 01:44:29;;;;;;;18.40;14.68;;;;;;;18.47;85.90;94628.81;5037750;28;20430;-69
2022/07/27 01:46:56;;;;;;;16.90;13.52;;;;;;;18.56;85.28;94622.91;5045308;28;20320;-68
2022/07/27 01:49:23;;;;;;;23.60;15.60;;;;;;;18.57;85.11;94622.63;5039853;28;20037;-68
2022/07/27 01:51:50;;;;;;;21.90;15.15;;;;;;;18.54;84.98;94618.69;5040755;28;20143;-70
2022/07/27 01:54:17;;;;;;;20.48;14.77;;;;;;;18.59;84.80;94630.25;5052593;28;20032;-70
2022/07/27 01:56:44;;;;;;;19.65;15.43;;;;;;;18.53;84.84;94617.13;5031967;28;20710;-70
2022/07/27 01:59:11;;;;;;;21.85;15.10;;;;;;;18.48;84.48;94613.78;5047126;28;20491;-69
2022/07/27 02:01:43;;;;;;;21.83;16.10;;;;;;;18.58;84.74;94631.31;5025194;28;20056;-69
2022/07/27 02:04:10;;;;;;;18.52;14.95;;;;;;;18.57;84.39;94632.41;5049248;28;20065;-69
2022/07/27 02:06:38;;;;;;;18.55;15.07;;;;;;;18.51;84.73;94635.09;5041236;28;20055;-70
2022/07/27 02:09:05;;;;;;;23.73;15.43;;;;;;;18.54;84.56;94639.78;5036282;28;20053;-69
2022/07/27 02:14:18;;;;;;;20.17;16.15;;;;;;;18.44;84.26;94642.59;5046892;28;20045;-70
2022/07/27 02:16:47;;;;;;;22.08;15.35;;;;;;;18.37;84.99;94649.28;5046016;28;20049;-70
2022/07/27 02:19:17;;;;;;;17.77;14.70;;;;;;;18.29;85.47;94642.78;5048393;28;20545;-69
2022/07/27 02:21:44;;;;;;;25.33;15.20;;;;;;;18.18;86.03;94641.34;5046878;28;20045;-69
2022/07/27 02:24:11;;;;;;;19.20;14.88;;;;;;;18.09;86.44;94644.59;5048961;28;20249;-69
2022/07/27 02:26:38;;;;;;;21.65;15.95;;;;;;;17.94;86.45;94650.06;5044613;28;20057;-69
2022/07/27 02:29:05;;;;;;;19.52;15.35;;;;;;;17.88;87.25;94648.53;5039268;28;20522;-69
2022/07/27 02:31:32;;;;;;;20.83;15.57;;;;;;;17.76;87.61;94647.06;5050696;28;20047;-70
2022/07/27 02:33:59;;;;;;;21.90;14.88;;;;;;;17.83;87.51;94656.50;5046892;28;20040;-69
2022/07/27 02:36:29;;;;;;;20.23;14.73;;;;;;;17.81;87.69;94648.06;5049803;28;20101;-70
2022/07/27 02:38:56;;;;;;;22.20;16.10;;;;;;;17.78;88.09;94649.41;5023928;28;20053;-69
2022/07/27 02:41:24;;;;;;;21.60;15.77;;;;;;;17.75;88.78;94645.50;5031679;28;20051;-69
2022/07/27 02:43:51;;;;;;;22.10;16.10;;;;;;;17.66;89.14;94651.66;5028100;28;20043;-69
2022/07/27 02:46:17;;;;;;;26.15;16.70;;;;;;;17.61;89.52;94655.13;5037824;28;20449;-70
2022/07/27 02:48:44;;;;;;;23.73;15.63;;;;;;;17.59;89.77;94657.25;5031359;28;20638;-70
2022/07/27 02:51:13;;;;;;;22.17;16.60;;;;;;;17.52;90.70;94656.78;5046730;28;20449;-71
2022/07/27 02:53:41;;;;;;;25.08;16.60;;;;;;;17.52;90.98;94657.59;5046765;28;20041;-70
2022/07/27 02:56:07;;;;;;;19.20;15.60;;;;;;;17.53;91.31;94653.09;5040904;28;20053;-70
2022/07/27 02:58:35;;;;;;;22.83;15.90;;;;;;;17.62;91.20;94651.44;5051242;28;20120;-70
2022/07/27 03:01:03;;;;;;;26.88;17.15;;;;;;;17.61;90.74;94660.41;5027101;28;20159;-70
2022/07/27 03:03:31;;;;;;;27.20;17.98;;;;;;;17.62;90.99;94667.22;5031418;28;20041;-69
2022/07/27 03:06:04;;;;;;;25.25;16.92;;;;;;;17.61;90.35;94660.41;5042758;28;20611;-70
2022/07/27 03:08:30;;;;;;;25.05;17.98;;;;;;;17.61;90.53;94659.59;5026873;28;20530;-70
2022/07/27 03:10:58;;;;;;;28.67;17.58;;;;;;;17.59;90.86;94662.50;5019884;28;20041;-71
2022/07/27 03:13:25;;;;;;;23.95;16.67;;;;;;;17.60;90.43;94669.34;5045492;28;20398;-68
2022/07/27 03:15:52;;;;;;;24.88;18.67;;;;;;;17.54;91.05;94662.59;5044409;28;20041;-68
2022/07/27 03:18:19;;;;;;;20.65;16.08;;;;;;;17.54;90.64;94665.22;5047967;28;20441;-69
2022/07/27 03:20:46;;;;;;;20.73;16.23;;;;;;;17.57;90.67;94665.44;5044571;28;20045;-71
2022/07/27 03:23:13;;;;;;;25.48;16.15;;;;;;;17.56;90.48;94668.34;5047060;28;20056;-69
2022/07/27 03:25:40;;;;;;;22.58;16.92;;;;;;;17.59;90.58;94673.03;5045622;28;20498;-69
2022/07/27 03:28:06;;;;;;;26.85;18.75;;;;;;;17.47;90.91;94670.81;5040139;28;20547;-70
2022/07/27 03:30:33;;;;;;;27.92;17.17;;;;;;;17.53;91.20;94680.22;5040913;28;20045;-68
2022/07/27 03:33:00;;;;;;;25.75;18.33;;;;;;;17.55;90.99;94677.31;5051028;28;20045;-68
2022/07/27 03:35:27;;;;;;;31.48;18.23;;;;;;;17.54;90.71;94675.75;5045144;28;20112;-68
2022/07/27 03:37:55;;;;;;;26.77;19.08;;;;;;;17.53;91.09;94668.91;5034913;28;20052;-68
2022/07/27 03:40:21;;;;;;;24.63;18.20;;;;;;;17.51;90.77;94671.03;5033947;28;20048;-69
2022/07/27 03:42:48;;;;;;;24.13;18.42;;;;;;;17.63;90.81;94673.28;5045115;28;20045;-69
2022/07/27 03:45:15;;;;;;;25.23;18.33;;;;;;;17.66;90.43;94660.31;5035295;28;20040;-68
2022/07/27 03:47:42;;;;;;;24.67;17.52;;;;;;;17.68;90.15;94655.59;5040811;28;20569;-68
2022/07/27 03:50:09;;;;;;;22.35;16.85;;;;;;;17.85;90.32;94675.44;5047281;28;20048;-68
2022/07/27 03:52:36;;;;;;;30.33;18.00;;;;;;;17.88;90.40;94677.53;5048525;28;20051;-68
2022/07/27 03:55:04;;;;;;;24.02;16.30;;;;;;;17.89;90.45;94677.25;5039966;28;20041;-69
2022/07/27 03:57:32;;;;;;;25.30;16.52;;;;;;;17.95;90.03;94673.50;5033318;28;20559;-68
2022/07/27 03:59:58;;;;;;;27.02;17.73;;;;;;;17.99;90.29;94684.25;5047497;28;20351;-68
2022/07/27 04:02:25;;;;;;;26.10;17.10;;;;;;;18.03;90.53;94687.91;5046593;28;20052;-68
2022/07/27 04:04:52;;;;;;;23.52;17.63;;;;;;;18.12;89.92;94686.22;5035635;28;20041;-68
2022/07/27 04:07:19;;;;;;;29.85;19.55;;;;;;;18.18;89.83;94688.78;5031042;28;20559;-68
2022/07/27 04:09:46;;;;;;;23.20;16.83;;;;;;;18.24;89.77;94688.47;5054154;28;20392;-68
2022/07/27 04:12:13;;;;;;;22.60;16.80;;;;;;;18.37;89.42;94686.19;5049063;28;20052;-68
2022/07/27 04:14:43;;;;;;;27.95;16.52;;;;;;;18.48;88.86;94685.78;5051233;28;20409;-68
2022/07/27 04:17:10;;;;;;;25.23;16.10;;;;;;;18.56;88.53;94683.56;5043622;28;20050;-68
2022/07/27 04:19:36;;;;;;;21.63;17.13;;;;;;;18.71;88.22;94686.00;5028998;28;20905;-69
2022/07/27 04:22:03;;;;;;;28.80;17.45;;;;;;;18.80;87.22;94689.56;5039125;28;20095;-68
2022/07/27 04:24:30;;;;;;;29.00;16.90;;;;;;;18.95;87.44;94693.84;5044488;28;20037;-69
2022/07/27 04:26:57;;;;;;;30.55;17.35;;;;;;;19.08;86.82;94694.97;5015264;28;20045;-70
2022/07/27 04:29:24;;;;;;;23.42;17.13;;;;;;;19.24;86.51;94698.94;5012370;28;20155;-71
2022/07/27 04:31:51;;;;;;;22.08;17.55;;;;;;;19.41;85.37;94692.34;5043597;28;20428;-69
2022/07/27 04:34:18;;;;;;;16.10;12.05;;;;;;;19.56;81.86;94699.25;5044789;28;20061;-70
2022/07/27 04:36:45;;;;;;;23.92;13.93;;;;;;;19.76;81.47;94698.91;5043691;28;20064;-71
2022/07/27 04:39:12;;;;;;;25.45;13.38;;;;;;;19.92;80.03;94699.41;5029908;28;20068;-70
2022/07/27 04:41:40;;;;;;;19.35;14.02;;;;;;;20.12;79.59;94705.41;5048903;28;20120;-70
2022/07/27 04:44:07;;;;;;;26.85;14.07;;;;;;;20.31;77.64;94703.44;5036628;28;20041;-71
2022/07/27 04:46:34;;;;;;;25.23;13.05;;;;;;;20.50;76.52;94710.47;5026286;28;20052;-70
2022/07/27 04:49:01;;;;;;;17.58;13.95;;;;;;;20.67;76.02;94710.66;5045835;28;20040;-70
2022/07/27 04:51:28;;;;;;;22.27;13.18;;;;;;;20.84;75.07;94719.84;5046439;28;20045;-69
2022/07/27 04:54:00;;;;;;;27.55;11.60;;;;;;;20.93;73.09;94723.34;5042001;28;20046;-69
2022/07/27 04:56:27;;;;;;;18.33;12.70;;;;;;;20.98;74.01;94720.59;5043752;28;20111;-70
2022/07/27 04:58:55;;;;;;;25.02;13.65;;;;;;;21.07;75.33;94733.88;5037646;28;20045;-68
2022/07/27 05:01:22;;;;;;;22.88;17.33;;;;;;;21.08;74.72;94728.28;5045472;28;20560;-70
2022/07/27 05:03:49;;;;;;;22.90;15.77;;;;;;;20.99;74.95;94728.22;5044944;28;20037;-70
2022/07/27 05:06:16;;;;;;;20.85;15.45;;;;;;;21.09;74.21;94729.84;5047974;28;20107;-70
2022/07/27 05:08:43;;;;;;;19.40;15.23;;;;;;;21.22;73.16;94736.19;5046896;28;20132;-70
2022/07/27 05:11:10;;;;;;;15.63;13.85;;;;;;;21.34;72.32;94733.00;5030494;28;20050;-68
2022/07/27 05:13:39;;;;;;;23.85;14.23;;;;;;;21.61;71.38;94739.25;5050111;28;20040;-68
2022/07/27 05:16:08;;;;;;;18.17;14.18;;;;;;;21.75;71.28;94747.94;5047853;28;20048;-69
2022/07/27 05:18:36;;;;;;;18.23;13.02;;;;;;;21.93;69.61;94749.59;5049199;28;20052;-68
2022/07/27 05:21:04;;;;;;;16.45;13.20;;;;;;;21.98;69.03;94745.25;5030161;28;20732;-69
2022/07/27 05:23:31;;;;;;;16.98;11.38;;;;;;;21.99;68.37;94747.59;5038104;28;20747;-68
2022/07/27 05:25:58;;;;;;;15.27;9.68;;;;;;;22.03;66.96;94742.47;5035257;28;20388;-68
2022/07/27 05:28:25;;;;;;;18.92;10.88;;;;;;;22.16;66.72;94741.56;5046445;28;20056;-69
2022/07/27 05:30:52;;;;;;;15.10;11.15;;;;;;;22.26;66.95;94751.94;5047317;28;20441;-68
2022/07/27 05:33:19;;;;;;;15.80;9.82;;;;;;;22.30;67.12;94750.25;5050510;28;20048;-69
2022/07/27 05:35:45;;;;;;;16.95;8.70;;;;;;;22.39;67.17;94749.50;5047024;28;20075;-69
2022/07/27 05:38:12;;;;;;;11.13;8.68;;;;;;;22.20;67.54;94741.75;5041867;28;20040;-69
2022/07/27 05:40:42;;;;;;;16.23;9.23;;;;;;;22.30;66.86;94752.91;5042489;28;20054;-69
2022/07/27 05:43:09;;;;;;;15.32;9.43;;;;;;;22.29;67.09;94751.34;5042472;28;20601;-69
2022/07/27 05:45:36;;;;;;;18.95;9.10;;;;;;;22.17;66.66;94727.25;5034095;28;20063;-70
2022/07/27 05:48:04;;;;;;;13.82;9.45;;;;;;;22.38;67.27;94748.69;5031999;28;20508;-71
2022/07/27 05:50:31;;;;;;;15.90;9.65;;;;;;;22.16;67.70;94717.69;5039184;28;20552;-71
2022/07/27 05:52:59;;;;;;;18.55;10.05;;;;;;;22.39;66.54;94755.56;5041776;28;20440;-70
2022/07/27 05:55:26;;;;;;;17.20;10.98;;;;;;;22.45;66.41;94758.88;5041968;28;20138;-69
2022/07/27 05:57:54;;;;;;;18.67;11.32;;;;;;;22.39;66.68;94754.81;5045171;28;20441;-69
2022/07/27 06:00:21;;;;;;;27.35;10.75;;;;;;;22.59;65.56;94764.06;5044636;28;20329;-69
2022/07/27 06:02:48;;;;;;;16.77;10.13;;;;;;;22.67;64.55;94761.44;5033513;28;20534;-70
2022/07/27 06:05:15;;;;;;;18.33;10.68;;;;;;;22.85;64.85;94758.81;5035585;28;20041;-70
2022/07/27 06:07:58;;;;;;;19.95;11.60;;;;;;;23.06;63.43;94767.75;5035741;28;20049;-69
2022/07/27 06:10:28;;;;;;;17.95;11.23;;;;;;;23.03;64.79;94768.38;5048219;28;20045;-69
2022/07/27 06:12:56;;;;;;;18.88;12.50;;;;;;;23.21;63.33;94768.38;5036681;28;20041;-69
2022/07/27 06:15:24;;;;;;;15.50;11.23;;;;;;;23.32;63.38;94767.00;5042330;28;20052;-69
2022/07/27 06:17:52;;;;;;;18.55;10.73;;;;;;;23.47;63.43;94766.50;5025387;28;20823;-69
2022/07/27 06:20:21;;;;;;;24.17;11.98;;;;;;;23.64;62.71;94765.72;5032446;28;20103;-69
2022/07/27 06:22:53;;;;;;;21.00;11.65;;;;;;;23.79;62.60;94766.31;5041089;28;20128;-69
2022/07/27 06:25:20;;;;;;;15.50;11.05;;;;;;;23.98;62.01;94768.63;5035093;28;20518;-70
2022/07/27 06:27:48;;;;;;;20.55;11.32;;;;;;;24.13;60.90;94765.47;5042366;28;20056;-69
2022/07/27 06:30:16;;;;;;;22.15;11.48;;;;;;;24.19;61.29;94764.19;5036559;28;20041;-69
2022/07/27 06:32:43;;;;;;;16.52;9.82;;;;;;;24.24;59.76;94760.59;5033771;28;20476;-70
2022/07/27 06:35:13;;;;;;;19.40;9.85;;;;;;;24.19;60.14;94768.75;5046721;28;20037;-70
2022/07/27 06:37:42;;;;;;;26.40;10.15;;;;;;;24.27;59.90;94759.16;5045247;28;20053;-71
2022/07/27 06:40:12;;;;;;;24.27;10.63;;;;;;;24.54;59.44;94758.75;5033754;28;20441;-71
2022/07/27 06:42:40;;;;;;;16.45;9.68;;;;;;;24.75;59.28;94763.34;5014283;28;20048;-72
2022/07/27 06:45:07;;;;;;;15.90;10.18;;;;;;;24.66;59.42;94752.72;5044681;28;20040;-70
2022/07/27 06:47:35;;;;;;;29.60;12.45;;;;;;;24.80;59.05;94760.50;5034241;28;20045;-74
2022/07/27 06:50:19;;;;;;;15.65;10.15;;;;;;;24.92;58.49;94763.25;5039688;28;20067;-74
2022/07/27 06:52:47;;;;;;;23.17;10.48;;;;;;;25.03;58.25;94754.84;5031067;28;20123;-74
2022/07/27 06:55:14;;;;;;;21.35;9.75;;;;;;;25.11;57.74;94751.34;5039378;28;20120;-73
2022/07/27 06:57:41;;;;;;;14.85;9.27;;;;;;;25.21;55.97;94758.97;5046899;28;20036;-74
2022/07/27 07:00:10;;;;;;;12.75;9.15;;;;;;;25.32;56.04;94754.81;5028771;28;20068;-75
2022/07/27 07:02:38;;;;;;;21.40;9.57;;;;;;;25.28;56.83;94751.25;5023400;28;20040;-74
2022/07/27 07:05:05;;;;;;;14.88;10.20;;;;;;;25.37;56.93;94757.28;5015974;28;20052;-75
2022/07/27 07:07:36;;;;;;;13.15;8.70;;;;;;;25.37;56.44;94751.94;5021473;28;20044;-75
2022/07/27 07:10:03;;;;;;;9.90;7.43;;;;;;;25.33;56.88;94744.91;5045490;28;20040;-75
2022/07/27 07:12:30;;;;;;;19.80;8.52;;;;;;;25.19;56.59;94745.16;5027979;28;20040;-75
2022/07/27 07:14:58;;;;;;;13.82;8.52;;;;;;;25.23;58.00;94746.09;5020955;28;20137;-75
2022/07/27 07:17:26;;;;;;;23.20;9.13;;;;;;;25.36;56.63;94737.06;5030016;28;20123;-68
2022/07/27 07:19:52;;;;;;;16.73;8.98;;;;;;;25.60;56.76;94740.91;5044451;28;20438;-68
2022/07/27 07:22:19;;;;;;;18.77;9.32;;;;;;;25.55;57.54;94743.78;5042545;28;20135;-67
2022/07/27 07:24:46;;;;;;;25.02;9.48;;;;;;;25.75;57.38;94740.31;5021057;28;20041;-66
2022/07/27 07:27:13;;;;;;;19.48;9.52;;;;;;;25.76;57.06;94736.50;5040726;28;20056;-67
2022/07/27 07:29:40;;;;;;;20.50;8.60;;;;;;;26.09;54.36;94743.75;5037017;28;20640;-75
2022/07/27 07:32:06;;;;;;;9.35;6.50;;;;;;;26.12;47.91;94743.06;5032560;28;20051;-69
2022/07/27 07:34:33;;;;;;;12.43;8.48;;;;;;;26.15;49.31;94743.53;5044520;28;20134;-71
2022/07/27 07:37:00;;;;;;;9.60;7.28;;;;;;;26.44;51.27;94745.97;5044161;28;20493;-67
2022/07/27 07:39:27;;;;;;;8.65;7.65;;;;;;;26.65;49.17;94737.88;5046524;28;20106;-68
2022/07/27 07:41:57;;;;;;;12.23;8.60;;;;;;;26.77;51.17;94739.75;5039610;28;20053;-75
2022/07/27 07:44:25;;;;;;;15.15;8.40;;;;;;;26.81;50.84;94746.00;5037078;28;20029;-67
2022/07/27 07:46:51;;;;;;;14.00;8.70;;;;;;;26.87;51.36;94741.97;5025933;28;20041;-71
2022/07/27 07:49:19;;;;;;;14.38;8.07;;;;;;;27.12;50.70;94747.25;5027214;28;20091;-71
2022/07/27 07:52:06;;;;;;;13.57;8.82;;;;;;;27.26;50.55;94753.03;5040717;28;20481;-71
2022/07/27 07:54:33;;;;;;;11.50;8.00;;;;;;;27.35;49.95;94747.56;5040131;28;20040;-72
2022/07/27 07:57:00;;;;;;;17.40;8.85;;;;;;;27.27;51.23;94749.22;5022125;28;20051;-71
2022/07/27 07:59:27;;;;;;;17.33;8.68;;;;;;;27.20;51.79;94740.97;5037886;28;20037;-71
2022/07/27 08:01:54;;;;;;;12.02;7.68;;;;;;;27.42;51.94;94752.31;5042651;28;20044;-72
2022/07/27 08:04:21;;;;;;;14.20;7.75;;;;;;;27.65;51.78;94750.63;5040553;28;20053;-72
2022/07/27 08:06:48;;;;;;;12.68;8.05;;;;;;;27.69;51.26;94749.97;5026122;28;20612;-71
2022/07/27 08:09:20;;;;;;;13.85;8.75;;;;;;;27.81;48.90;94747.22;5032464;28;20041;-71
2022/07/27 08:11:47;;;;;;;12.93;8.25;;;;;;;27.78;47.72;94748.66;5041525;28;20269;-71
2022/07/27 08:14:14;;;;;;;15.23;8.18;;;;;;;27.71;47.94;94718.28;5045184;28;20076;-71
2022/07/27 08:16:41;;;;;;;12.93;7.72;;;;;;;27.87;47.20;94743.16;5040287;28;20037;-71
2022/07/27 08:19:08;;;;;;;15.73;7.88;;;;;;;28.01;47.68;94740.88;5022560;28;20076;-71
2022/07/27 08:21:35;;;;;;;19.83;9.00;;;;;;;28.10;43.18;94735.38;5039824;28;20063;-74
2022/07/27 08:24:02;;;;;;;13.02;7.63;;;;;;;28.49;45.70;94743.56;5044982;28;20046;-74
2022/07/27 08:26:29;;;;;;;12.45;7.90;;;;;;;28.75;44.92;94729.63;5045712;28;20553;-74
2022/07/27 08:28:56;;;;;;;11.90;7.75;;;;;;;29.03;44.98;94739.41;5043800;28;20045;-74
2022/07/27 08:31:39;;;;;;;17.63;7.72;;;;;;;29.03;43.19;94728.69;5023337;28;20053;-74
2022/07/27 08:34:17;;;;;;;10.02;7.95;;;;;;;29.12;43.18;94737.31;5012684;28;20104;-73
2022/07/27 08:36:44;;;;;;;15.20;8.40;;;;;;;29.21;43.27;94734.44;5028274;28;20037;-73
2022/07/27 08:39:11;;;;;;;19.67;7.78;;;;;;;29.55;44.67;94727.44;5046733;28;20525;-73
2022/07/27 08:42:05;;;;;;;11.32;8.18;;;;;;;29.93;42.37;94739.28;5038508;28;20077;-73
2022/07/27 08:44:32;;;;;;;;;;;;;;;29.27;43.35;94738.38;5031758;28;20041;-73
2022/07/27 08:47:02;;;;;;;12.95;7.88;;;;;;;29.49;43.17;94734.22;5053208;28;20031;-73
2022/07/27 08:49:30;;;;;;;20.85;8.35;;;;;;;29.78;42.69;94734.75;5027822;28;20522;-73
2022/07/27 08:52:09;;;;;;;14.98;7.63;;;;;;;30.00;42.83;94725.19;5050882;28;20036;-73
2022/07/27 08:54:40;;;;;;;17.95;7.90;;;;;;;30.29;41.52;94737.19;5050667;28;20476;-73
2022/07/27 08:57:08;;;;;;;20.02;7.85;;;;;;;30.36;41.37;94730.38;5033704;28;20072;-73
2022/07/27 08:59:36;;;;;;;24.50;8.50;;;;;;;30.61;40.63;94731.56;5046552;28;20059;-73
2022/07/27 09:02:08;;;;;;;15.57;7.65;;;;;;;30.69;40.30;94722.44;5031009;28;20033;-73
2022/07/27 09:04:41;;;;;;;17.60;8.00;;;;;;;30.74;38.91;94717.88;5044803;28;20377;-73
2022/07/27 09:07:07;;;;;;;13.63;7.50;;;;;;;30.90;39.20;94721.19;5047773;28;20036;-73
2022/07/27 09:09:45;;;;;;;15.05;7.93;;;;;;;30.93;38.60;94709.72;5030108;28;20038;-73
2022/07/27 09:12:12;;;;;;;21.42;8.50;;;;;;;31.10;38.97;94718.38;5045797;28;20477;-73
2022/07/27 09:14:40;;;;;;;13.88;7.82;;;;;;;31.27;38.01;94719.75;5049568;28;20049;-73
2022/07/27 09:17:25;;;;;;;11.32;7.65;;;;;;;31.39;37.36;94712.22;5042216;28;20048;-73
2022/07/27 09:20:15;;;;;;;13.88;6.82;;;;;;;31.39;36.93;94714.91;5050622;28;20110;-73
2022/07/27 09:22:55;;;;;;;12.90;7.90;;;;;;;31.02;37.41;94707.53;5037082;28;20060;-73
2022/07/27 09:25:22;;;;;;;8.73;7.03;;;;;;;30.99;37.27;94708.28;5029667;28;20052;-73
2022/07/27 09:28:10;;;;;;;10.10;7.57;;;;;;;31.27;36.70;94717.84;5009500;28;20732;-73
2022/07/27 09:30:41;;;;;;;9.50;7.07;;;;;;;31.39;35.69;94719.53;5024438;28;20037;-73
2022/07/27 09:33:09;;;;;;;9.60;7.68;;;;;;;31.74;34.36;94710.28;5028679;28;20064;-73
2022/07/27 09:35:36;;;;;;;9.50;7.05;;;;;;;32.26;34.00;94715.78;5005180;28;20045;-74
2022/07/27 09:38:23;;;;;;;13.07;7.30;;;;;;;32.67;33.58;94705.69;5020405;28;20056;-74
2022/07/27 09:41:02;;;;;;;10.25;7.45;;;;;;;32.74;33.35;94713.06;5028339;28;20060;-73
2022/07/27 09:43:30;;;;;;;14.00;7.38;;;;;;;32.76;31.98;94710.75;5023289;28;20049;-74
2022/07/27 09:46:28;;;;;;;14.70;8.02;;;;;;;32.65;32.30;94709.94;5033421;28;20048;-73
2022/07/27 09:48:56;;;;;;;11.52;7.00;;;;;;;32.91;32.67;94708.91;5008675;28;20081;-74
2022/07/27 09:51:24;;;;;;;10.13;7.00;;;;;;;33.19;32.19;94711.00;5016944;28;20097;-74
2022/07/27 09:54:11;;;;;;;13.30;7.70;;;;;;;32.72;31.52;94709.97;5020043;28;20577;-73
2022/07/27 09:56:39;;;;;;;15.07;8.40;;;;;;;32.85;31.81;94695.00;5021658;28;20033;-74
2022/07/27 09:59:06;;;;;;;11.32;7.32;;;;;;;33.18;31.17;94687.84;5013756;28;20052;-74
2022/07/27 10:01:36;;;;;;;11.05;7.57;;;;;;;33.52;31.37;94692.97;5033450;28;20045;-74
2022/07/27 10:04:12;;;;;;;9.95;7.68;;;;;;;33.61;30.42;94696.09;5024070;28;20107;-73
2022/07/27 10:06:40;;;;;;;7.95;7.15;;;;;;;33.93;30.77;94697.34;5004948;28;20436;-74
2022/07/27 10:09:29;;;;;;;14.60;7.82;;;;;;;34.19;30.40;94688.09;5020676;28;20056;-74
2022/07/27 10:11:57;;;;;;;8.07;7.10;;;;;;;34.11;29.93;94686.53;5024681;28;20069;-74
2022/07/27 10:14:24;;;;;;;9.90;6.60;;;;;;;34.00;29.57;94686.53;5022541;28;20052;-72
2022/07/27 10:16:53;;;;;;;13.35;8.18;;;;;;;34.35;29.34;94685.75;5007577;28;20514;-71
2022/07/27 10:19:49;;;;;;;8.23;6.72;;;;;;;34.59;30.07;94678.00;5020530;28;20095;-71
2022/07/27 10:22:48;;;;;;;15.65;7.93;;;;;;;34.71;28.13;94685.72;5014444;28;20068;-72
2022/07/27 10:25:15;;;;;;;9.65;7.40;;;;;;;34.83;28.86;94671.78;5015662;28;20430;-72
2022/07/27 10:27:46;;;;;;;15.00;7.22;;;;;;;34.72;28.36;94681.88;5016336;28;20053;-71
2022/07/27 10:30:16;;;;;;;8.07;6.85;;;;;;;34.92;28.54;94676.03;5017986;28;20046;-72
2022/07/27 10:32:50;;;;;;;12.15;7.10;;;;;;;35.21;27.46;94680.19;5012678;28;20042;-71
2022/07/27 10:35:35;;;;;;;9.48;6.63;;;;;;;35.67;27.60;94683.03;5007818;28;20429;-71
2022/07/27 10:38:11;;;;;;;13.38;7.07;;;;;;;35.85;27.32;94683.69;5017971;28;20049;-74
2022/07/27 10:40:38;;;;;;;9.05;7.60;;;;;;;35.96;26.91;94684.41;5008339;28;20596;-74
2022/07/27 10:43:18;;;;;;;9.68;6.85;;;;;;;35.64;27.55;94679.19;5025663;28;20060;-73
2022/07/27 10:45:48;;;;;;;8.57;6.43;;;;;;;35.70;26.71;94676.84;5007962;28;20550;-72
2022/07/27 10:48:37;;;;;;;7.80;6.57;;;;;;;35.66;27.16;94670.66;5015650;28;20033;-74
2022/07/27 10:51:15;;;;;;;14.80;8.27;;;;;;;35.82;26.15;94679.09;5019112;28;20033;-73
2022/07/27 10:53:43;;;;;;;8.88;7.15;;;;;;;35.70;25.76;94671.44;5014878;28;20029;-68
2022/07/27 10:56:51;;;;;;;10.95;7.28;;;;;;;36.17;23.46;94655.59;5018578;28;20427;-70
2022/07/27 10:59:37;;;;;;;15.32;7.55;;;;;;;36.58;24.65;94662.97;5007607;28;20128;-74
2022/07/27 11:02:39;;;;;;;9.85;6.53;;;;;;;36.34;25.81;94654.69;5016578;28;20033;-71
2022/07/27 11:05:07;;;;;;;11.80;7.07;;;;;;;35.98;26.17;94654.22;5018871;28;20049;-72
2022/07/27 11:07:55;;;;;;;7.25;6.13;;;;;;;36.83;25.56;94661.97;5015265;28;20077;-69
2022/07/27 11:10:43;;;;;;;9.27;6.85;;;;;;;36.80;24.03;94662.78;5020264;28;20049;-69
2022/07/27 11:13:11;;;;;;;9.27;6.57;;;;;;;35.92;24.32;94656.56;5018125;28;20068;-69
2022/07/27 11:15:38;;;;;;;10.35;7.30;;;;;;;35.97;23.92;94653.44;5020553;28;20133;-69
2022/07/27 11:18:05;;;;;;;7.60;6.80;;;;;;;36.41;23.67;94647.66;5018319;28;20045;-69
2022/07/27 11:20:32;;;;;;;8.90;7.28;;;;;;;37.20;23.59;94646.81;5008031;28;20045;-68
2022/07/27 11:23:01;;;;;;;7.63;6.13;;;;;;;37.41;21.49;94645.78;5019241;28;20053;-69
2022/07/27 11:26:01;;;;;;;7.78;6.68;;;;;;;36.30;22.62;94643.13;5015589;28;20037;-69
2022/07/27 11:28:29;;;;;;;8.93;6.70;;;;;;;36.43;23.24;94651.53;5001366;28;20050;-69
2022/07/27 11:30:57;;;;;;;8.23;7.32;;;;;;;36.52;23.02;94651.03;5019809;28;20141;-69
2022/07/27 11:33:24;;;;;;;7.22;6.53;;;;;;;36.35;22.12;94644.63;5019823;28;20414;-69
2022/07/27 11:35:52;;;;;;;8.43;6.55;;;;;;;36.62;22.22;94647.44;5000635;28;20260;-68